Algoma Harvester — XJBK — position and weather

sailwx.info

Track history (hours):
 
Tides and Currents Weather Stations Pressure Air Temp Water Temp Dewpoint Dewpoint Depression Visibility Wind Speed Wind Dir Waves Ship Positions

Algoma Harvester

Last reported at 2018-Apr-23 07:23 UTC. Time now 2018-Apr-25 01:02 UTC.
Position N 45°55' W 083°52'.

Length 226 m; draft 6.8 m.

Type: Cargo ship. MMSI: 316011710.

Date/timePositionNaut miles runAvg speedWind from/ knotsBaromVisibWave heightAir tempDewpointWater temp
2018-Apr-23 07:23N 45°55' W 083°52'512.6
2018-Apr-23 07:00N 45°51' W 083°48'714.4
2018-Apr-23 06:30N 45°45' W 083°42'714.4
2018-Apr-23 06:00N 45°40' W 083°36'714.4
2018-Apr-23 05:30N 45°34' W 083°30'714.4
2018-Apr-23 05:00N 45°28' W 083°23'  
2018-Apr-19 07:39N 45°12' W 074°18'510.8
2018-Apr-19 07:08N 45°14' W 074°11'1 8.5
2018-Apr-19 06:58N 45°14' W 074°08'5 7.6
2018-Apr-19 06:22N 45°13' W 074°02'3 8.2
2018-Apr-19 06:00N 45°15' W 073°58'4 7.4
2018-Apr-19 05:30N 45°18' W 073°56'0 0.4
2018-Apr-19 05:00N 45°18' W 073°56'1 1.6
2018-Apr-19 04:30N 45°19' W 073°55'0 0.6
2018-Apr-19 04:00N 45°19' W 073°55'4 7.3
2018-Apr-19 03:30N 45°21' W 073°51'6 9.0
2018-Apr-19 02:52N 45°24' W 073°44'2 6.0
2018-Apr-19 02:30N 45°25' W 073°41'3 5.5
2018-Apr-19 02:00N 45°24' W 073°37'2 4.1
2018-Apr-19 01:30N 45°24' W 073°34'0 0.3
2018-Apr-19 01:00N 45°24' W 073°34'1 2.2
2018-Apr-19 00:31N 45°24' W 073°32'3 5.1
2018-Apr-19 00:01N 45°27' W 073°30'3 5.7
2018-Apr-18 23:30N 45°29' W 073°31'0 0.7
2018-Apr-18 23:01N 45°30' W 073°31'1 1.1
2018-Apr-18 22:30N 45°30' W 073°31'33 8.4
2018-Apr-18 18:34N 46°00' W 073°11'1 8.4
2018-Apr-18 18:30N 46°01' W 073°11'4 7.4
2018-Apr-18 18:00N 46°03' W 073°07'9210.0
2018-Apr-18 08:49N 46°49' W 071°12'2 6.8
2018-Apr-18 08:30N 46°51' W 071°10'  
2018-Apr-15 14:10N 46°50' W 071°08'212.7
2018-Apr-15 14:00N 46°50' W 071°11'1 1.5
2018-Apr-15 13:29N 46°49' W 071°12'0 0.0
2018-Apr-15 11:54N 46°49' W 071°12'0 0.0
2018-Apr-15 11:15N 46°49' W 071°12'0 0.0
2018-Apr-15 10:51N 46°49' W 071°12'0 0.0
2018-Apr-15 10:30N 46°49' W 071°12'0 0.0
2018-Apr-15 09:54N 46°49' W 071°12'0 0.0
2018-Apr-15 09:26N 46°49' W 071°12'0 0.0
2018-Apr-15 08:57N 46°49' W 071°12'0 0.0
2018-Apr-15 08:27N 46°49' W 071°12'0 0.0
2018-Apr-15 07:59N 46°49' W 071°12'0 0.0
2018-Apr-15 07:27N 46°49' W 071°12'0 0.0
2018-Apr-15 04:23N 46°49' W 071°12'0 0.0
2018-Apr-15 03:57N 46°49' W 071°12'0 0.0
2018-Apr-15 02:18N 46°49' W 071°12'0 0.0
2018-Apr-15 02:00N 46°49' W 071°12'0 0.0
2018-Apr-14 23:27N 46°49' W 071°12'0 0.0
2018-Apr-14 19:13N 46°49' W 071°12'0 0.0
2018-Apr-14 18:52N 46°49' W 071°12'0 0.0
2018-Apr-14 18:25N 46°49' W 071°12'0 0.0
2018-Apr-14 17:55N 46°49' W 071°12'0 0.0
2018-Apr-14 17:16N 46°49' W 071°12'0 0.0
2018-Apr-14 16:49N 46°49' W 071°12'0 0.0
2018-Apr-14 12:37N 46°49' W 071°12'0 0.0
2018-Apr-14 12:07N 46°49' W 071°12'0 0.0
2018-Apr-14 08:58N 46°49' W 071°12'0 0.0
2018-Apr-14 08:22N 46°49' W 071°12'0 0.0
2018-Apr-14 07:40N 46°49' W 071°12'0 0.0
2018-Apr-14 07:28N 46°49' W 071°12'0 0.0
2018-Apr-14 06:25N 46°49' W 071°12'0 0.0
2018-Apr-14 05:58N 46°49' W 071°12'0 0.0
2018-Apr-14 04:46N 46°49' W 071°12'0 0.0
2018-Apr-14 03:25N 46°49' W 071°12'0 0.0
2018-Apr-14 00:10N 46°49' W 071°12'0 0.0
2018-Apr-13 22:34N 46°49' W 071°12'0 0.0
2018-Apr-13 22:25N 46°49' W 071°12'0 0.0
2018-Apr-13 21:58N 46°49' W 071°12'0 0.0
2018-Apr-13 19:58N 46°49' W 071°12'0 0.0
2018-Apr-13 18:19N 46°49' W 071°12'0 0.0
2018-Apr-13 17:04N 46°49' W 071°12'0 0.0
2018-Apr-13 16:49N 46°49' W 071°12'0 0.0
2018-Apr-13 16:25N 46°49' W 071°12'0 0.0
2018-Apr-13 12:46N 46°49' W 071°12'0 0.0
2018-Apr-13 12:16N 46°49' W 071°12'0 0.0
2018-Apr-13 11:52N 46°49' W 071°12'0 0.0
2018-Apr-13 11:13N 46°49' W 071°12'0 0.0
2018-Apr-13 10:58N 46°49' W 071°12'0 0.1
2018-Apr-13 10:29N 46°49' W 071°12'  
Track history (hours):
 
Tides and Currents Weather Stations Pressure Air Temp Water Temp Dewpoint Dewpoint Depression Visibility Wind Speed Wind Dir Waves Ship Positions

Algoma Harvester

Last reported at 2018-Apr-23 07:23 UTC. Time now 2018-Apr-25 01:02 UTC.
Position N 45°55' W 083°52'.

Length 226 m; draft 6.8 m.

Type: Cargo ship. MMSI: 316011710.

Date/timePositionNaut miles runAvg speedWind from/ knotsBaromVisibWave heightAir tempDewpointWater temp
2018-Apr-23 07:23N 45°55' W 083°52'512.6
2018-Apr-23 07:00N 45°51' W 083°48'714.4
2018-Apr-23 06:30N 45°45' W 083°42'714.4
2018-Apr-23 06:00N 45°40' W 083°36'714.4
2018-Apr-23 05:30N 45°34' W 083°30'714.4
2018-Apr-23 05:00N 45°28' W 083°23'  
2018-Apr-19 07:39N 45°12' W 074°18'510.8
2018-Apr-19 07:08N 45°14' W 074°11'1 8.5
2018-Apr-19 06:58N 45°14' W 074°08'5 7.6
2018-Apr-19 06:22N 45°13' W 074°02'3 8.2
2018-Apr-19 06:00N 45°15' W 073°58'4 7.4
2018-Apr-19 05:30N 45°18' W 073°56'0 0.4
2018-Apr-19 05:00N 45°18' W 073°56'1 1.6
2018-Apr-19 04:30N 45°19' W 073°55'0 0.6
2018-Apr-19 04:00N 45°19' W 073°55'4 7.3
2018-Apr-19 03:30N 45°21' W 073°51'6 9.0
2018-Apr-19 02:52N 45°24' W 073°44'2 6.0
2018-Apr-19 02:30N 45°25' W 073°41'3 5.5
2018-Apr-19 02:00N 45°24' W 073°37'2 4.1
2018-Apr-19 01:30N 45°24' W 073°34'0 0.3
2018-Apr-19 01:00N 45°24' W 073°34'1 2.2
2018-Apr-19 00:31N 45°24' W 073°32'3 5.1
2018-Apr-19 00:01N 45°27' W 073°30'3 5.7
2018-Apr-18 23:30N 45°29' W 073°31'0 0.7
2018-Apr-18 23:01N 45°30' W 073°31'1 1.1
2018-Apr-18 22:30N 45°30' W 073°31'33 8.4
2018-Apr-18 18:34N 46°00' W 073°11'1 8.4
2018-Apr-18 18:30N 46°01' W 073°11'4 7.4
2018-Apr-18 18:00N 46°03' W 073°07'9210.0
2018-Apr-18 08:49N 46°49' W 071°12'2 6.8
2018-Apr-18 08:30N 46°51' W 071°10'  
2018-Apr-15 14:10N 46°50' W 071°08'212.7
2018-Apr-15 14:00N 46°50' W 071°11'1 1.5
2018-Apr-15 13:29N 46°49' W 071°12'0 0.0
2018-Apr-15 11:54N 46°49' W 071°12'0 0.0
2018-Apr-15 11:15N 46°49' W 071°12'0 0.0
2018-Apr-15 10:51N 46°49' W 071°12'0 0.0
2018-Apr-15 10:30N 46°49' W 071°12'0 0.0
2018-Apr-15 09:54N 46°49' W 071°12'0 0.0
2018-Apr-15 09:26N 46°49' W 071°12'0 0.0
2018-Apr-15 08:57N 46°49' W 071°12'0 0.0
2018-Apr-15 08:27N 46°49' W 071°12'0 0.0
2018-Apr-15 07:59N 46°49' W 071°12'0 0.0
2018-Apr-15 07:27N 46°49' W 071°12'0 0.0
2018-Apr-15 04:23N 46°49' W 071°12'0 0.0
2018-Apr-15 03:57N 46°49' W 071°12'0 0.0
2018-Apr-15 02:18N 46°49' W 071°12'0 0.0
2018-Apr-15 02:00N 46°49' W 071°12'0 0.0
2018-Apr-14 23:27N 46°49' W 071°12'0 0.0
2018-Apr-14 19:13N 46°49' W 071°12'0 0.0
2018-Apr-14 18:52N 46°49' W 071°12'0 0.0
2018-Apr-14 18:25N 46°49' W 071°12'0 0.0
2018-Apr-14 17:55N 46°49' W 071°12'0 0.0
2018-Apr-14 17:16N 46°49' W 071°12'0 0.0
2018-Apr-14 16:49N 46°49' W 071°12'0 0.0
2018-Apr-14 12:37N 46°49' W 071°12'0 0.0
2018-Apr-14 12:07N 46°49' W 071°12'0 0.0
2018-Apr-14 08:58N 46°49' W 071°12'0 0.0
2018-Apr-14 08:22N 46°49' W 071°12'0 0.0
2018-Apr-14 07:40N 46°49' W 071°12'0 0.0
2018-Apr-14 07:28N 46°49' W 071°12'0 0.0
2018-Apr-14 06:25N 46°49' W 071°12'0 0.0
2018-Apr-14 05:58N 46°49' W 071°12'0 0.0
2018-Apr-14 04:46N 46°49' W 071°12'0 0.0
2018-Apr-14 03:25N 46°49' W 071°12'0 0.0
2018-Apr-14 00:10N 46°49' W 071°12'0 0.0
2018-Apr-13 22:34N 46°49' W 071°12'0 0.0
2018-Apr-13 22:25N 46°49' W 071°12'0 0.0
2018-Apr-13 21:58N 46°49' W 071°12'0 0.0
2018-Apr-13 19:58N 46°49' W 071°12'0 0.0
2018-Apr-13 18:19N 46°49' W 071°12'0 0.0
2018-Apr-13 17:04N 46°49' W 071°12'0 0.0
2018-Apr-13 16:49N 46°49' W 071°12'0 0.0
2018-Apr-13 16:25N 46°49' W 071°12'0 0.0
2018-Apr-13 12:46N 46°49' W 071°12'0 0.0
2018-Apr-13 12:16N 46°49' W 071°12'0 0.0
2018-Apr-13 11:52N 46°49' W 071°12'0 0.0
2018-Apr-13 11:13N 46°49' W 071°12'0 0.0
2018-Apr-13 10:58N 46°49' W 071°12'0 0.1
2018-Apr-13 10:29N 46°49' W 071°12'  

Dump ship's entire track history